sensor_id;sensor_type;location;lat;lon;timestamp;pressure;altitude;pressure_sealevel;temperature
72405;BMP280;60395;52.020;113.548;2022-08-19T00:00:07;91923.81;;;15.80
72405;BMP280;60395;52.020;113.548;2022-08-19T00:03:11;91936.13;;;15.86
72405;BMP280;60395;52.020;113.548;2022-08-19T00:06:15;91932.94;;;15.83
72405;BMP280;60395;52.020;113.548;2022-08-19T00:09:23;91931.22;;;15.77
72405;BMP280;60395;52.020;113.548;2022-08-19T00:12:26;91938.34;;;15.81
72405;BMP280;60395;52.020;113.548;2022-08-19T00:15:29;91941.25;;;15.62
72405;BMP280;60395;52.020;113.548;2022-08-19T00:18:33;91932.31;;;15.55
72405;BMP280;60395;52.020;113.548;2022-08-19T00:21:36;91935.31;;;15.35
72405;BMP280;60395;52.020;113.548;2022-08-19T00:24:41;91935.06;;;15.26
72405;BMP280;60395;52.020;113.548;2022-08-19T00:27:52;91930.91;;;15.44
72405;BMP280;60395;52.020;113.548;2022-08-19T00:30:55;91931.97;;;15.76
72405;BMP280;60395;52.020;113.548;2022-08-19T00:33:58;91922.81;;;16.00
72405;BMP280;60395;52.020;113.548;2022-08-19T00:37:01;91928.25;;;16.23
72405;BMP280;60395;52.020;113.548;2022-08-19T00:40:11;91922.00;;;16.41
72405;BMP280;60395;52.020;113.548;2022-08-19T00:43:19;91926.47;;;16.45
72405;BMP280;60395;52.020;113.548;2022-08-19T00:46:23;91920.44;;;16.34
72405;BMP280;60395;52.020;113.548;2022-08-19T00:49:34;91923.69;;;16.34
72405;BMP280;60395;52.020;113.548;2022-08-19T00:52:43;91914.38;;;16.48
72405;BMP280;60395;52.020;113.548;2022-08-19T00:55:50;91919.25;;;16.56
72405;BMP280;60395;52.020;113.548;2022-08-19T00:58:55;91925.81;;;16.57
72405;BMP280;60395;52.020;113.548;2022-08-19T01:01:59;91919.69;;;16.61
72405;BMP280;60395;52.020;113.548;2022-08-19T01:05:05;91923.69;;;16.85
72405;BMP280;60395;52.020;113.548;2022-08-19T01:08:09;91918.91;;;16.87
72405;BMP280;60395;52.020;113.548;2022-08-19T01:11:12;91922.28;;;16.86
72405;BMP280;60395;52.020;113.548;2022-08-19T01:14:16;91923.06;;;16.84
72405;BMP280;60395;52.020;113.548;2022-08-19T01:17:19;91917.41;;;17.03
72405;BMP280;60395;52.020;113.548;2022-08-19T01:20:24;91918.25;;;17.35
72405;BMP280;60395;52.020;113.548;2022-08-19T01:23:27;91918.63;;;17.52
72405;BMP280;60395;52.020;113.548;2022-08-19T01:26:45;91913.63;;;17.46
72405;BMP280;60395;52.020;113.548;2022-08-19T01:29:49;91914.25;;;17.59
72405;BMP280;60395;52.020;113.548;2022-08-19T01:32:53;91906.72;;;17.51
72405;BMP280;60395;52.020;113.548;2022-08-19T01:36:05;91899.69;;;17.35
72405;BMP280;60395;52.020;113.548;2022-08-19T01:39:11;91903.66;;;17.24
72405;BMP280;60395;52.020;113.548;2022-08-19T01:42:14;91907.00;;;17.35
72405;BMP280;60395;52.020;113.548;2022-08-19T01:45:19;91911.47;;;17.38
72405;BMP280;60395;52.020;113.548;2022-08-19T01:48:22;91920.50;;;17.31
72405;BMP280;60395;52.020;113.548;2022-08-19T01:51:27;91921.38;;;17.27
72405;BMP280;60395;52.020;113.548;2022-08-19T01:54:39;91938.78;;;17.24
72405;BMP280;60395;52.020;113.548;2022-08-19T01:57:44;91928.59;;;17.52
72405;BMP280;60395;52.020;113.548;2022-08-19T02:00:48;91928.47;;;17.77
72405;BMP280;60395;52.020;113.548;2022-08-19T02:03:51;91933.28;;;17.98
72405;BMP280;60395;52.020;113.548;2022-08-19T02:06:58;91929.50;;;18.05
72405;BMP280;60395;52.020;113.548;2022-08-19T02:10:04;91934.84;;;18.16
72405;BMP280;60395;52.020;113.548;2022-08-19T02:13:13;91933.03;;;18.02
72405;BMP280;60395;52.020;113.548;2022-08-19T02:16:22;91919.31;;;17.87
72405;BMP280;60395;52.020;113.548;2022-08-19T02:19:25;91921.09;;;17.67
72405;BMP280;60395;52.020;113.548;2022-08-19T02:22:28;91922.63;;;17.64
72405;BMP280;60395;52.020;113.548;2022-08-19T02:25:31;91927.03;;;17.67
72405;BMP280;60395;52.020;113.548;2022-08-19T02:28:34;91921.97;;;17.63
72405;BMP280;60395;52.020;113.548;2022-08-19T02:31:38;91918.38;;;17.56
72405;BMP280;60395;52.020;113.548;2022-08-19T02:34:42;91915.72;;;17.56
72405;BMP280;60395;52.020;113.548;2022-08-19T02:37:45;91914.06;;;17.74
72405;BMP280;60395;52.020;113.548;2022-08-19T02:41:12;91915.34;;;18.09
72405;BMP280;60395;52.020;113.548;2022-08-19T02:44:16;91915.13;;;18.23
72405;BMP280;60395;52.020;113.548;2022-08-19T02:47:32;91913.41;;;18.41
72405;BMP280;60395;52.020;113.548;2022-08-19T02:50:39;91906.94;;;18.49
72405;BMP280;60395;52.020;113.548;2022-08-19T02:53:54;91902.69;;;18.54
72405;BMP280;60395;52.020;113.548;2022-08-19T02:56:58;91904.56;;;18.66
72405;BMP280;60395;52.020;113.548;2022-08-19T03:00:05;91901.16;;;18.67
72405;BMP280;60395;52.020;113.548;2022-08-19T03:03:08;91894.91;;;18.39
72405;BMP280;60395;52.020;113.548;2022-08-19T03:06:14;91902.81;;;18.18
72405;BMP280;60395;52.020;113.548;2022-08-19T03:09:19;91895.75;;;18.14
72405;BMP280;60395;52.020;113.548;2022-08-19T03:12:22;91897.59;;;18.05
72405;BMP280;60395;52.020;113.548;2022-08-19T03:15:25;91887.59;;;18.06
72405;BMP280;60395;52.020;113.548;2022-08-19T03:18:28;91915.03;;;17.92
72405;BMP280;60395;52.020;113.548;2022-08-19T03:21:33;91906.19;;;17.72
72405;BMP280;60395;52.020;113.548;2022-08-19T03:24:37;91896.03;;;17.87
72405;BMP280;60395;52.020;113.548;2022-08-19T03:27:40;91898.72;;;18.32
72405;BMP280;60395;52.020;113.548;2022-08-19T03:30:55;91909.53;;;18.72
72405;BMP280;60395;52.020;113.548;2022-08-19T03:34:02;91908.03;;;18.85
72405;BMP280;60395;52.020;113.548;2022-08-19T03:37:10;91903.97;;;18.97
72405;BMP280;60395;52.020;113.548;2022-08-19T03:40:17;91900.03;;;18.85
72405;BMP280;60395;52.020;113.548;2022-08-19T03:43:21;91893.53;;;18.82
72405;BMP280;60395;52.020;113.548;2022-08-19T03:46:28;91886.97;;;19.03
72405;BMP280;60395;52.020;113.548;2022-08-19T03:49:32;91878.09;;;19.06
72405;BMP280;60395;52.020;113.548;2022-08-19T03:52:38;91888.75;;;18.95
72405;BMP280;60395;52.020;113.548;2022-08-19T03:55:47;91883.56;;;18.72
72405;BMP280;60395;52.020;113.548;2022-08-19T03:58:51;91902.03;;;18.53
72405;BMP280;60395;52.020;113.548;2022-08-19T04:01:57;91882.53;;;18.57
72405;BMP280;60395;52.020;113.548;2022-08-19T04:05:00;91879.38;;;18.75
72405;BMP280;60395;52.020;113.548;2022-08-19T04:08:04;91883.44;;;18.95
72405;BMP280;60395;52.020;113.548;2022-08-19T04:11:17;91881.00;;;19.13
72405;BMP280;60395;52.020;113.548;2022-08-19T04:14:23;91872.72;;;19.27
72405;BMP280;60395;52.020;113.548;2022-08-19T04:17:27;91881.25;;;19.30
72405;BMP280;60395;52.020;113.548;2022-08-19T04:20:30;91882.25;;;19.35
72405;BMP280;60395;52.020;113.548;2022-08-19T04:23:34;91877.16;;;19.41
72405;BMP280;60395;52.020;113.548;2022-08-19T04:26:46;91870.97;;;19.34
72405;BMP280;60395;52.020;113.548;2022-08-19T04:29:50;91878.31;;;19.23
72405;BMP280;60395;52.020;113.548;2022-08-19T04:32:53;91887.84;;;19.10
72405;BMP280;60395;52.020;113.548;2022-08-19T04:35:56;91886.59;;;18.87
72405;BMP280;60395;52.020;113.548;2022-08-19T04:39:04;91885.84;;;19.00
72405;BMP280;60395;52.020;113.548;2022-08-19T04:42:08;91877.34;;;18.97
72405;BMP280;60395;52.020;113.548;2022-08-19T04:45:32;91867.22;;;18.89
72405;BMP280;60395;52.020;113.548;2022-08-19T04:48:44;91877.34;;;18.65
72405;BMP280;60395;52.020;113.548;2022-08-19T04:51:52;91877.56;;;18.51
72405;BMP280;60395;52.020;113.548;2022-08-19T04:54:57;91867.59;;;18.72
72405;BMP280;60395;52.020;113.548;2022-08-19T04:58:00;91858.09;;;18.96
72405;BMP280;60395;52.020;113.548;2022-08-19T05:01:05;91877.19;;;19.10
72405;BMP280;60395;52.020;113.548;2022-08-19T05:04:08;91866.94;;;19.25
72405;BMP280;60395;52.020;113.548;2022-08-19T05:07:11;91872.69;;;19.48
72405;BMP280;60395;52.020;113.548;2022-08-19T05:10:14;91866.66;;;19.69
72405;BMP280;60395;52.020;113.548;2022-08-19T05:13:19;91868.16;;;19.77
72405;BMP280;60395;52.020;113.548;2022-08-19T05:16:23;91854.25;;;19.95
72405;BMP280;60395;52.020;113.548;2022-08-19T05:19:26;91870.34;;;19.93
72405;BMP280;60395;52.020;113.548;2022-08-19T05:22:47;91863.63;;;19.64
72405;BMP280;60395;52.020;113.548;2022-08-19T05:25:51;91865.19;;;19.51
72405;BMP280;60395;52.020;113.548;2022-08-19T05:28:55;91851.66;;;19.44
72405;BMP280;60395;52.020;113.548;2022-08-19T05:32:00;91859.66;;;19.34
72405;BMP280;60395;52.020;113.548;2022-08-19T05:35:05;91865.03;;;19.13
72405;BMP280;60395;52.020;113.548;2022-08-19T05:38:09;91845.41;;;19.08
72405;BMP280;60395;52.020;113.548;2022-08-19T05:41:14;91850.09;;;19.18
72405;BMP280;60395;52.020;113.548;2022-08-19T05:44:17;91851.06;;;19.23
72405;BMP280;60395;52.020;113.548;2022-08-19T05:47:22;91852.19;;;19.26
72405;BMP280;60395;52.020;113.548;2022-08-19T05:50:25;91855.31;;;19.49
72405;BMP280;60395;52.020;113.548;2022-08-19T05:53:28;91858.09;;;19.88
72405;BMP280;60395;52.020;113.548;2022-08-19T05:56:32;91857.72;;;20.13
72405;BMP280;60395;52.020;113.548;2022-08-19T05:59:35;91852.88;;;20.35
72405;BMP280;60395;52.020;113.548;2022-08-19T06:02:40;91860.81;;;20.26
72405;BMP280;60395;52.020;113.548;2022-08-19T06:05:43;91850.03;;;19.98
72405;BMP280;60395;52.020;113.548;2022-08-19T06:08:53;91848.03;;;19.88
72405;BMP280;60395;52.020;113.548;2022-08-19T06:11:58;91852.97;;;19.94
72405;BMP280;60395;52.020;113.548;2022-08-19T06:15:09;91837.13;;;20.30
72405;BMP280;60395;52.020;113.548;2022-08-19T06:18:13;91850.81;;;20.54
72405;BMP280;60395;52.020;113.548;2022-08-19T06:21:22;91838.41;;;20.51
72405;BMP280;60395;52.020;113.548;2022-08-19T06:24:27;91844.56;;;20.58
72405;BMP280;60395;52.020;113.548;2022-08-19T06:27:31;91846.97;;;20.62
72405;BMP280;60395;52.020;113.548;2022-08-19T06:30:36;91833.03;;;20.70
72405;BMP280;60395;52.020;113.548;2022-08-19T06:33:40;91837.06;;;20.60
72405;BMP280;60395;52.020;113.548;2022-08-19T06:36:46;91825.63;;;20.43
72405;BMP280;60395;52.020;113.548;2022-08-19T06:39:50;91827.59;;;20.14
72405;BMP280;60395;52.020;113.548;2022-08-19T06:42:53;91815.53;;;19.96
72405;BMP280;60395;52.020;113.548;2022-08-19T06:45:57;91820.78;;;19.88
72405;BMP280;60395;52.020;113.548;2022-08-19T06:49:03;91821.81;;;19.82
72405;BMP280;60395;52.020;113.548;2022-08-19T06:52:07;91807.94;;;19.90
72405;BMP280;60395;52.020;113.548;2022-08-19T06:55:15;91802.63;;;19.90
72405;BMP280;60395;52.020;113.548;2022-08-19T06:58:19;91799.81;;;19.92
72405;BMP280;60395;52.020;113.548;2022-08-19T07:01:23;91801.56;;;20.15
72405;BMP280;60395;52.020;113.548;2022-08-19T07:04:29;91801.84;;;20.30
72405;BMP280;60395;52.020;113.548;2022-08-19T07:07:34;91813.94;;;20.29
72405;BMP280;60395;52.020;113.548;2022-08-19T07:10:37;91802.59;;;20.48
72405;BMP280;60395;52.020;113.548;2022-08-19T07:13:45;91803.97;;;20.66
72405;BMP280;60395;52.020;113.548;2022-08-19T07:16:49;91804.31;;;20.70
72405;BMP280;60395;52.020;113.548;2022-08-19T07:19:53;91806.47;;;20.59
72405;BMP280;60395;52.020;113.548;2022-08-19T07:22:57;91815.31;;;20.47
72405;BMP280;60395;52.020;113.548;2022-08-19T07:29:19;91800.38;;;19.84
72405;BMP280;60395;52.020;113.548;2022-08-19T07:32:29;91796.28;;;19.66
72405;BMP280;60395;52.020;113.548;2022-08-19T07:35:33;91795.84;;;19.72
72405;BMP280;60395;52.020;113.548;2022-08-19T07:38:37;91813.00;;;19.94
72405;BMP280;60395;52.020;113.548;2022-08-19T07:41:42;91810.56;;;20.20
72405;BMP280;60395;52.020;113.548;2022-08-19T07:44:45;91809.50;;;20.45
72405;BMP280;60395;52.020;113.548;2022-08-19T07:47:51;91824.84;;;20.44
72405;BMP280;60395;52.020;113.548;2022-08-19T07:50:57;91820.66;;;20.47
72405;BMP280;60395;52.020;113.548;2022-08-19T07:54:02;91815.31;;;20.47
72405;BMP280;60395;52.020;113.548;2022-08-19T07:57:06;91813.13;;;20.50
72405;BMP280;60395;52.020;113.548;2022-08-19T08:00:09;91836.84;;;20.54
72405;BMP280;60395;52.020;113.548;2022-08-19T08:03:15;91830.72;;;20.74
72405;BMP280;60395;52.020;113.548;2022-08-19T08:06:18;91832.47;;;20.78
72405;BMP280;60395;52.020;113.548;2022-08-19T08:09:42;91855.03;;;20.70
72405;BMP280;60395;52.020;113.548;2022-08-19T08:12:51;91892.66;;;20.47
72405;BMP280;60395;52.020;113.548;2022-08-19T08:16:11;91898.56;;;20.09
72405;BMP280;60395;52.020;113.548;2022-08-19T08:19:17;91889.34;;;19.79
72405;BMP280;60395;52.020;113.548;2022-08-19T08:22:26;91906.69;;;19.48
72405;BMP280;60395;52.020;113.548;2022-08-19T08:25:49;91910.13;;;19.15
72405;BMP280;60395;52.020;113.548;2022-08-19T08:28:52;91912.06;;;18.84
72405;BMP280;60395;52.020;113.548;2022-08-19T08:31:56;91908.59;;;18.65
72405;BMP280;60395;52.020;113.548;2022-08-19T08:35:00;91907.59;;;18.70
72405;BMP280;60395;52.020;113.548;2022-08-19T08:38:03;91900.94;;;18.27
72405;BMP280;60395;52.020;113.548;2022-08-19T08:41:40;91892.63;;;17.89
72405;BMP280;60395;52.020;113.548;2022-08-19T08:44:59;91888.66;;;17.54
72405;BMP280;60395;52.020;113.548;2022-08-19T08:48:20;91898.16;;;17.61
72405;BMP280;60395;52.020;113.548;2022-08-19T08:51:53;91895.94;;;18.00
72405;BMP280;60395;52.020;113.548;2022-08-19T08:55:12;91902.13;;;18.30
72405;BMP280;60395;52.020;113.548;2022-08-19T08:58:26;91896.53;;;18.23
72405;BMP280;60395;52.020;113.548;2022-08-19T09:01:31;91893.72;;;18.15
72405;BMP280;60395;52.020;113.548;2022-08-19T09:04:35;91883.31;;;18.11
72405;BMP280;60395;52.020;113.548;2022-08-19T09:07:52;91894.75;;;18.20
72405;BMP280;60395;52.020;113.548;2022-08-19T09:10:57;91892.25;;;17.95
72405;BMP280;60395;52.020;113.548;2022-08-19T09:14:08;91889.44;;;17.86
72405;BMP280;60395;52.020;113.548;2022-08-19T09:17:35;91874.50;;;17.81
72405;BMP280;60395;52.020;113.548;2022-08-19T09:20:40;91883.31;;;17.77
72405;BMP280;60395;52.020;113.548;2022-08-19T09:23:44;91877.53;;;17.75
72405;BMP280;60395;52.020;113.548;2022-08-19T09:26:52;91883.50;;;17.62
72405;BMP280;60395;52.020;113.548;2022-08-19T09:29:55;91879.25;;;17.44
72405;BMP280;60395;52.020;113.548;2022-08-19T09:32:58;91882.81;;;17.28
72405;BMP280;60395;52.020;113.548;2022-08-19T09:36:07;91883.16;;;17.22
72405;BMP280;60395;52.020;113.548;2022-08-19T09:39:11;91881.69;;;17.13
72405;BMP280;60395;52.020;113.548;2022-08-19T09:42:17;91886.50;;;17.10
72405;BMP280;60395;52.020;113.548;2022-08-19T09:45:31;91887.66;;;17.13
72405;BMP280;60395;52.020;113.548;2022-08-19T09:48:41;91896.56;;;17.20
72405;BMP280;60395;52.020;113.548;2022-08-19T09:51:45;91896.19;;;17.26
72405;BMP280;60395;52.020;113.548;2022-08-19T09:54:52;91883.56;;;17.27
72405;BMP280;60395;52.020;113.548;2022-08-19T09:57:55;91883.16;;;17.22
72405;BMP280;60395;52.020;113.548;2022-08-19T10:01:00;91898.81;;;17.16
72405;BMP280;60395;52.020;113.548;2022-08-19T10:04:04;91911.84;;;17.07
72405;BMP280;60395;52.020;113.548;2022-08-19T10:07:23;91935.97;;;17.03
72405;BMP280;60395;52.020;113.548;2022-08-19T10:10:37;91911.16;;;16.96
72405;BMP280;60395;52.020;113.548;2022-08-19T10:13:44;91907.22;;;16.95
72405;BMP280;60395;52.020;113.548;2022-08-19T10:16:47;91905.84;;;16.96
72405;BMP280;60395;52.020;113.548;2022-08-19T10:19:52;91911.28;;;16.94
72405;BMP280;60395;52.020;113.548;2022-08-19T10:22:57;91906.50;;;16.84
72405;BMP280;60395;52.020;113.548;2022-08-19T10:26:06;91914.69;;;16.80
72405;BMP280;60395;52.020;113.548;2022-08-19T10:29:09;91916.06;;;16.79
72405;BMP280;60395;52.020;113.548;2022-08-19T10:32:33;91913.50;;;16.77
72405;BMP280;60395;52.020;113.548;2022-08-19T10:35:36;91909.06;;;16.73
72405;BMP280;60395;52.020;113.548;2022-08-19T10:38:59;91908.66;;;16.69
72405;BMP280;60395;52.020;113.548;2022-08-19T10:42:07;91910.25;;;16.64
72405;BMP280;60395;52.020;113.548;2022-08-19T10:45:13;91915.13;;;16.59
72405;BMP280;60395;52.020;113.548;2022-08-19T10:48:16;91914.81;;;16.53
72405;BMP280;60395;52.020;113.548;2022-08-19T10:51:21;91920.34;;;16.49
72405;BMP280;60395;52.020;113.548;2022-08-19T10:54:49;91930.81;;;16.51
72405;BMP280;60395;52.020;113.548;2022-08-19T10:58:13;91928.28;;;16.49
72405;BMP280;60395;52.020;113.548;2022-08-19T11:01:17;91933.03;;;16.46
72405;BMP280;60395;52.020;113.548;2022-08-19T11:04:21;91932.19;;;16.37
72405;BMP280;60395;52.020;113.548;2022-08-19T11:07:30;91939.94;;;16.28
72405;BMP280;60395;52.020;113.548;2022-08-19T11:10:33;91942.03;;;16.13
72405;BMP280;60395;52.020;113.548;2022-08-19T11:13:39;91949.22;;;16.02
72405;BMP280;60395;52.020;113.548;2022-08-19T11:16:43;91943.13;;;15.91
72405;BMP280;60395;52.020;113.548;2022-08-19T11:19:46;91943.66;;;15.81
72405;BMP280;60395;52.020;113.548;2022-08-19T11:22:52;91955.91;;;15.74
72405;BMP280;60395;52.020;113.548;2022-08-19T11:25:56;91958.94;;;15.66
72405;BMP280;60395;52.020;113.548;2022-08-19T11:29:00;91951.50;;;15.56
72405;BMP280;60395;52.020;113.548;2022-08-19T11:32:08;91954.72;;;15.44
72405;BMP280;60395;52.020;113.548;2022-08-19T11:35:12;91961.78;;;15.35
72405;BMP280;60395;52.020;113.548;2022-08-19T11:38:15;91956.84;;;15.27
72405;BMP280;60395;52.020;113.548;2022-08-19T11:41:20;91957.31;;;15.16
72405;BMP280;60395;52.020;113.548;2022-08-19T11:44:23;91964.38;;;15.07
72405;BMP280;60395;52.020;113.548;2022-08-19T11:47:27;91967.38;;;14.99
72405;BMP280;60395;52.020;113.548;2022-08-19T11:50:30;91963.72;;;14.92
72405;BMP280;60395;52.020;113.548;2022-08-19T11:53:34;91972.03;;;14.84
72405;BMP280;60395;52.020;113.548;2022-08-19T11:56:38;91978.94;;;14.77
72405;BMP280;60395;52.020;113.548;2022-08-19T11:59:42;91976.03;;;14.69
72405;BMP280;60395;52.020;113.548;2022-08-19T12:02:45;91980.94;;;14.62
72405;BMP280;60395;52.020;113.548;2022-08-19T12:05:48;91978.56;;;14.56
72405;BMP280;60395;52.020;113.548;2022-08-19T12:08:52;91977.47;;;14.51
72405;BMP280;60395;52.020;113.548;2022-08-19T12:11:56;91980.19;;;14.49
72405;BMP280;60395;52.020;113.548;2022-08-19T12:14:59;91981.63;;;14.46
72405;BMP280;60395;52.020;113.548;2022-08-19T12:18:03;91983.09;;;14.43
72405;BMP280;60395;52.020;113.548;2022-08-19T12:21:07;91982.72;;;14.36
72405;BMP280;60395;52.020;113.548;2022-08-19T12:24:12;91988.16;;;14.32
72405;BMP280;60395;52.020;113.548;2022-08-19T12:27:16;91983.78;;;14.27
72405;BMP280;60395;52.020;113.548;2022-08-19T12:30:39;91992.34;;;14.27
72405;BMP280;60395;52.020;113.548;2022-08-19T12:33:42;91985.78;;;14.26
72405;BMP280;60395;52.020;113.548;2022-08-19T12:36:45;91994.44;;;14.25
72405;BMP280;60395;52.020;113.548;2022-08-19T12:39:51;91995.88;;;14.22
72405;BMP280;60395;52.020;113.548;2022-08-19T12:42:55;91990.78;;;14.18
72405;BMP280;60395;52.020;113.548;2022-08-19T12:45:58;91996.13;;;14.16
72405;BMP280;60395;52.020;113.548;2022-08-19T12:49:02;91992.13;;;14.17
72405;BMP280;60395;52.020;113.548;2022-08-19T12:52:24;91989.56;;;14.15
72405;BMP280;60395;52.020;113.548;2022-08-19T12:55:29;92004.88;;;14.12
72405;BMP280;60395;52.020;113.548;2022-08-19T12:58:32;92002.22;;;14.12
72405;BMP280;60395;52.020;113.548;2022-08-19T13:01:37;92006.16;;;14.13
72405;BMP280;60395;52.020;113.548;2022-08-19T13:04:40;92010.84;;;14.11
72405;BMP280;60395;52.020;113.548;2022-08-19T13:07:43;92011.03;;;14.06
72405;BMP280;60395;52.020;113.548;2022-08-19T13:10:46;92027.72;;;14.03
72405;BMP280;60395;52.020;113.548;2022-08-19T13:13:51;92033.13;;;13.99
72405;BMP280;60395;52.020;113.548;2022-08-19T13:16:55;92027.94;;;13.97
72405;BMP280;60395;52.020;113.548;2022-08-19T13:19:58;92029.94;;;13.96
72405;BMP280;60395;52.020;113.548;2022-08-19T13:23:01;92032.59;;;13.96
72405;BMP280;60395;52.020;113.548;2022-08-19T13:26:06;92036.56;;;13.95
72405;BMP280;60395;52.020;113.548;2022-08-19T13:29:09;92038.09;;;13.90
72405;BMP280;60395;52.020;113.548;2022-08-19T13:32:44;92033.72;;;13.85
72405;BMP280;60395;52.020;113.548;2022-08-19T13:36:05;92027.38;;;13.78
72405;BMP280;60395;52.020;113.548;2022-08-19T13:39:11;92032.16;;;13.73
72405;BMP280;60395;52.020;113.548;2022-08-19T13:42:15;92030.41;;;13.68
72405;BMP280;60395;52.020;113.548;2022-08-19T13:45:21;92035.13;;;13.65
72405;BMP280;60395;52.020;113.548;2022-08-19T13:48:25;92032.16;;;13.57
72405;BMP280;60395;52.020;113.548;2022-08-19T13:51:33;92035.63;;;13.53
72405;BMP280;60395;52.020;113.548;2022-08-19T13:54:37;92039.66;;;13.50
72405;BMP280;60395;52.020;113.548;2022-08-19T13:57:40;92043.78;;;13.47
72405;BMP280;60395;52.020;113.548;2022-08-19T14:00:45;92037.25;;;13.44
72405;BMP280;60395;52.020;113.548;2022-08-19T14:03:49;92039.44;;;13.39
72405;BMP280;60395;52.020;113.548;2022-08-19T14:06:52;92046.84;;;13.35
72405;BMP280;60395;52.020;113.548;2022-08-19T14:09:55;92047.22;;;13.25
72405;BMP280;60395;52.020;113.548;2022-08-19T14:13:00;92044.75;;;13.21
72405;BMP280;60395;52.020;113.548;2022-08-19T14:16:09;92043.69;;;13.14
72405;BMP280;60395;52.020;113.548;2022-08-19T14:19:13;92045.28;;;13.07
72405;BMP280;60395;52.020;113.548;2022-08-19T14:22:16;92040.22;;;13.01
72405;BMP280;60395;52.020;113.548;2022-08-19T14:25:26;92049.63;;;12.96
72405;BMP280;60395;52.020;113.548;2022-08-19T14:28:29;92042.03;;;12.87
72405;BMP280;60395;52.020;113.548;2022-08-19T14:31:33;92040.66;;;12.88
72405;BMP280;60395;52.020;113.548;2022-08-19T14:34:36;92038.75;;;12.87
72405;BMP280;60395;52.020;113.548;2022-08-19T14:37:41;92043.44;;;12.84
72405;BMP280;60395;52.020;113.548;2022-08-19T14:41:18;92028.47;;;12.79
72405;BMP280;60395;52.020;113.548;2022-08-19T14:44:22;92031.31;;;12.73
72405;BMP280;60395;52.020;113.548;2022-08-19T14:47:25;92032.13;;;12.69
72405;BMP280;60395;52.020;113.548;2022-08-19T14:50:29;92035.59;;;12.64
72405;BMP280;60395;52.020;113.548;2022-08-19T14:53:32;92019.94;;;12.60
72405;BMP280;60395;52.020;113.548;2022-08-19T14:56:40;92018.16;;;12.54
72405;BMP280;60395;52.020;113.548;2022-08-19T14:59:43;92023.56;;;12.50
72405;BMP280;60395;52.020;113.548;2022-08-19T15:02:46;92022.41;;;12.45
72405;BMP280;60395;52.020;113.548;2022-08-19T15:05:50;92024.56;;;12.41
72405;BMP280;60395;52.020;113.548;2022-08-19T15:08:53;92025.97;;;12.37
72405;BMP280;60395;52.020;113.548;2022-08-19T15:12:02;92033.94;;;12.35
72405;BMP280;60395;52.020;113.548;2022-08-19T15:15:11;92033.50;;;12.29
72405;BMP280;60395;52.020;113.548;2022-08-19T15:18:15;92029.88;;;12.20
72405;BMP280;60395;52.020;113.548;2022-08-19T15:21:18;92030.13;;;12.12
72405;BMP280;60395;52.020;113.548;2022-08-19T15:24:28;92034.31;;;12.05
72405;BMP280;60395;52.020;113.548;2022-08-19T15:27:31;92029.91;;;11.99
72405;BMP280;60395;52.020;113.548;2022-08-19T15:30:35;92032.72;;;11.93
72405;BMP280;60395;52.020;113.548;2022-08-19T15:33:39;92034.88;;;11.87
72405;BMP280;60395;52.020;113.548;2022-08-19T15:36:45;92031.09;;;11.81
72405;BMP280;60395;52.020;113.548;2022-08-19T15:39:48;92041.78;;;11.77
72405;BMP280;60395;52.020;113.548;2022-08-19T15:42:52;92038.03;;;11.70
72405;BMP280;60395;52.020;113.548;2022-08-19T15:45:56;92026.34;;;11.65
72405;BMP280;60395;52.020;113.548;2022-08-19T15:49:00;92035.09;;;11.60
72405;BMP280;60395;52.020;113.548;2022-08-19T15:52:03;92030.00;;;11.54
72405;BMP280;60395;52.020;113.548;2022-08-19T15:55:08;92026.13;;;11.51
72405;BMP280;60395;52.020;113.548;2022-08-19T15:58:20;92030.84;;;11.48
72405;BMP280;60395;52.020;113.548;2022-08-19T16:01:41;92029.03;;;11.43
72405;BMP280;60395;52.020;113.548;2022-08-19T16:05:06;92024.53;;;11.39
72405;BMP280;60395;52.020;113.548;2022-08-19T16:08:28;92028.56;;;11.36
72405;BMP280;60395;52.020;113.548;2022-08-19T16:11:34;92025.41;;;11.32
72405;BMP280;60395;52.020;113.548;2022-08-19T16:14:40;92036.13;;;11.25
72405;BMP280;60395;52.020;113.548;2022-08-19T16:17:44;92036.28;;;11.19
72405;BMP280;60395;52.020;113.548;2022-08-19T16:20:58;92036.41;;;11.15
72405;BMP280;60395;52.020;113.548;2022-08-19T16:24:04;92034.53;;;11.12
72405;BMP280;60395;52.020;113.548;2022-08-19T16:27:08;92037.28;;;11.08
72405;BMP280;60395;52.020;113.548;2022-08-19T16:30:12;92041.31;;;11.05
72405;BMP280;60395;52.020;113.548;2022-08-19T16:33:15;92032.19;;;11.02
72405;BMP280;60395;52.020;113.548;2022-08-19T16:36:24;92034.88;;;11.00
72405;BMP280;60395;52.020;113.548;2022-08-19T16:39:28;92040.78;;;11.00
72405;BMP280;60395;52.020;113.548;2022-08-19T16:42:31;92038.97;;;10.95
72405;BMP280;60395;52.020;113.548;2022-08-19T16:45:35;92035.25;;;10.88
72405;BMP280;60395;52.020;113.548;2022-08-19T16:48:38;92039.88;;;10.85
72405;BMP280;60395;52.020;113.548;2022-08-19T16:51:44;92039.25;;;10.85
72405;BMP280;60395;52.020;113.548;2022-08-19T16:54:49;92045.78;;;10.86
72405;BMP280;60395;52.020;113.548;2022-08-19T16:57:53;92045.84;;;10.84
72405;BMP280;60395;52.020;113.548;2022-08-19T17:00:57;92049.97;;;10.76
72405;BMP280;60395;52.020;113.548;2022-08-19T17:04:05;92042.38;;;10.66
72405;BMP280;60395;52.020;113.548;2022-08-19T17:07:09;92039.25;;;10.60
72405;BMP280;60395;52.020;113.548;2022-08-19T17:10:13;92043.91;;;10.57
72405;BMP280;60395;52.020;113.548;2022-08-19T17:13:16;92033.53;;;10.53
72405;BMP280;60395;52.020;113.548;2022-08-19T17:16:22;92031.00;;;10.49
72405;BMP280;60395;52.020;113.548;2022-08-19T17:19:26;92033.69;;;10.47
72405;BMP280;60395;52.020;113.548;2022-08-19T17:22:30;92041.66;;;10.43
72405;BMP280;60395;52.020;113.548;2022-08-19T17:25:33;92035.25;;;10.38